sensor_id;sensor_type;location;lat;lon;timestamp;temperature;humidity
19220;DHT22;9744;49.364;7.484;2023-09-19T00:01:06;14.80;99.90
19220;DHT22;9744;49.364;7.484;2023-09-19T00:03:34;14.80;99.90
19220;DHT22;9744;49.364;7.484;2023-09-19T00:06:03;14.80;99.90
19220;DHT22;9744;49.364;7.484;2023-09-19T00:08:33;14.80;99.90
19220;DHT22;9744;49.364;7.484;2023-09-19T00:11:00;14.80;99.90
19220;DHT22;9744;49.364;7.484;2023-09-19T00:13:32;14.80;99.90
19220;DHT22;9744;49.364;7.484;2023-09-19T00:16:09;14.80;99.90
19220;DHT22;9744;49.364;7.484;2023-09-19T00:18:38;14.80;99.90
19220;DHT22;9744;49.364;7.484;2023-09-19T00:21:06;14.80;99.90
19220;DHT22;9744;49.364;7.484;2023-09-19T00:23:33;14.80;99.90
19220;DHT22;9744;49.364;7.484;2023-09-19T00:26:01;14.80;99.90
19220;DHT22;9744;49.364;7.484;2023-09-19T00:28:30;14.80;99.90
19220;DHT22;9744;49.364;7.484;2023-09-19T00:30:57;14.90;99.90
19220;DHT22;9744;49.364;7.484;2023-09-19T00:33:28;14.90;99.90
19220;DHT22;9744;49.364;7.484;2023-09-19T00:35:56;14.90;99.90
19220;DHT22;9744;49.364;7.484;2023-09-19T00:38:24;14.90;99.90
19220;DHT22;9744;49.364;7.484;2023-09-19T00:40:54;14.90;99.90
19220;DHT22;9744;49.364;7.484;2023-09-19T00:43:23;14.90;99.90
19220;DHT22;9744;49.364;7.484;2023-09-19T00:45:52;14.90;99.90
19220;DHT22;9744;49.364;7.484;2023-09-19T00:48:21;14.90;99.90
19220;DHT22;9744;49.364;7.484;2023-09-19T00:50:51;14.90;99.90
19220;DHT22;9744;49.364;7.484;2023-09-19T00:53:21;14.90;99.90
19220;DHT22;9744;49.364;7.484;2023-09-19T00:55:51;14.90;99.90
19220;DHT22;9744;49.364;7.484;2023-09-19T00:58:19;14.90;99.90
19220;DHT22;9744;49.364;7.484;2023-09-19T01:00:47;14.90;99.90
19220;DHT22;9744;49.364;7.484;2023-09-19T01:03:14;14.90;99.90
19220;DHT22;9744;49.364;7.484;2023-09-19T01:05:42;14.90;99.90
19220;DHT22;9744;49.364;7.484;2023-09-19T01:08:11;14.90;99.90
19220;DHT22;9744;49.364;7.484;2023-09-19T01:10:43;14.90;99.90
19220;DHT22;9744;49.364;7.484;2023-09-19T01:13:18;14.80;99.90
19220;DHT22;9744;49.364;7.484;2023-09-19T01:15:55;14.90;99.90
19220;DHT22;9744;49.364;7.484;2023-09-19T01:18:30;14.90;99.90
19220;DHT22;9744;49.364;7.484;2023-09-19T01:21:08;14.90;99.90
19220;DHT22;9744;49.364;7.484;2023-09-19T01:24:00;14.80;99.90
19220;DHT22;9744;49.364;7.484;2023-09-19T01:26:51;14.80;99.90
19220;DHT22;9744;49.364;7.484;2023-09-19T01:29:34;14.80;99.90
19220;DHT22;9744;49.364;7.484;2023-09-19T01:32:08;14.80;99.90
19220;DHT22;9744;49.364;7.484;2023-09-19T01:34:46;14.80;99.90
19220;DHT22;9744;49.364;7.484;2023-09-19T01:37:16;14.70;99.90
19220;DHT22;9744;49.364;7.484;2023-09-19T01:39:47;14.70;99.90
19220;DHT22;9744;49.364;7.484;2023-09-19T01:42:24;14.70;99.90
19220;DHT22;9744;49.364;7.484;2023-09-19T01:45:02;14.70;99.90
19220;DHT22;9744;49.364;7.484;2023-09-19T01:47:34;14.70;99.90
19220;DHT22;9744;49.364;7.484;2023-09-19T01:50:10;14.70;99.90
19220;DHT22;9744;49.364;7.484;2023-09-19T01:52:45;14.60;99.90
19220;DHT22;9744;49.364;7.484;2023-09-19T01:55:15;14.60;99.90
19220;DHT22;9744;49.364;7.484;2023-09-19T01:57:49;14.60;99.90
19220;DHT22;9744;49.364;7.484;2023-09-19T02:00:20;14.60;99.90
19220;DHT22;9744;49.364;7.484;2023-09-19T02:02:51;14.60;99.90
19220;DHT22;9744;49.364;7.484;2023-09-19T02:05:25;14.50;99.90
19220;DHT22;9744;49.364;7.484;2023-09-19T02:07:53;14.60;99.90
19220;DHT22;9744;49.364;7.484;2023-09-19T02:10:22;14.60;99.90
19220;DHT22;9744;49.364;7.484;2023-09-19T02:12:50;14.50;99.90
19220;DHT22;9744;49.364;7.484;2023-09-19T02:15:17;14.60;99.90
19220;DHT22;9744;49.364;7.484;2023-09-19T02:17:45;14.50;99.90
19220;DHT22;9744;49.364;7.484;2023-09-19T02:20:15;14.40;99.90
19220;DHT22;9744;49.364;7.484;2023-09-19T02:22:44;14.50;99.90
19220;DHT22;9744;49.364;7.484;2023-09-19T02:25:11;14.40;99.90
19220;DHT22;9744;49.364;7.484;2023-09-19T02:27:39;14.40;99.90
19220;DHT22;9744;49.364;7.484;2023-09-19T02:30:07;14.40;99.90
19220;DHT22;9744;49.364;7.484;2023-09-19T02:32:34;14.50;99.90
19220;DHT22;9744;49.364;7.484;2023-09-19T02:35:06;14.50;99.90
19220;DHT22;9744;49.364;7.484;2023-09-19T02:37:38;14.40;99.90
19220;DHT22;9744;49.364;7.484;2023-09-19T02:40:06;14.30;99.90
19220;DHT22;9744;49.364;7.484;2023-09-19T02:42:45;14.30;99.90
19220;DHT22;9744;49.364;7.484;2023-09-19T02:45:15;14.30;99.90
19220;DHT22;9744;49.364;7.484;2023-09-19T02:47:43;14.30;99.90
19220;DHT22;9744;49.364;7.484;2023-09-19T02:50:11;14.30;99.90
19220;DHT22;9744;49.364;7.484;2023-09-19T02:52:41;14.20;99.90
19220;DHT22;9744;49.364;7.484;2023-09-19T02:55:10;14.20;99.90
19220;DHT22;9744;49.364;7.484;2023-09-19T02:57:38;14.20;99.90
19220;DHT22;9744;49.364;7.484;2023-09-19T03:00:07;14.10;99.90
19220;DHT22;9744;49.364;7.484;2023-09-19T03:02:36;14.10;99.90
19220;DHT22;9744;49.364;7.484;2023-09-19T03:05:07;14.10;99.90
19220;DHT22;9744;49.364;7.484;2023-09-19T03:07:37;14.10;99.90
19220;DHT22;9744;49.364;7.484;2023-09-19T03:10:08;14.10;99.90
19220;DHT22;9744;49.364;7.484;2023-09-19T03:12:35;14.10;99.90
19220;DHT22;9744;49.364;7.484;2023-09-19T03:15:04;14.00;99.90
19220;DHT22;9744;49.364;7.484;2023-09-19T03:17:32;14.00;99.90
19220;DHT22;9744;49.364;7.484;2023-09-19T03:19:59;14.10;99.90
19220;DHT22;9744;49.364;7.484;2023-09-19T03:22:27;14.10;99.90
19220;DHT22;9744;49.364;7.484;2023-09-19T03:24:54;14.00;99.90
19220;DHT22;9744;49.364;7.484;2023-09-19T03:27:23;14.00;99.90
19220;DHT22;9744;49.364;7.484;2023-09-19T03:29:51;14.00;99.90
19220;DHT22;9744;49.364;7.484;2023-09-19T03:32:20;14.00;99.90
19220;DHT22;9744;49.364;7.484;2023-09-19T03:34:47;14.00;99.90
19220;DHT22;9744;49.364;7.484;2023-09-19T03:37:16;14.00;99.90
19220;DHT22;9744;49.364;7.484;2023-09-19T03:39:44;13.90;99.90
19220;DHT22;9744;49.364;7.484;2023-09-19T03:42:11;13.80;99.90
19220;DHT22;9744;49.364;7.484;2023-09-19T03:44:40;13.80;99.90
19220;DHT22;9744;49.364;7.484;2023-09-19T03:47:07;13.80;99.90
19220;DHT22;9744;49.364;7.484;2023-09-19T03:49:34;13.70;99.90
19220;DHT22;9744;49.364;7.484;2023-09-19T03:52:03;13.70;99.90
19220;DHT22;9744;49.364;7.484;2023-09-19T03:54:30;13.60;99.90
19220;DHT22;9744;49.364;7.484;2023-09-19T03:56:58;13.60;99.90
19220;DHT22;9744;49.364;7.484;2023-09-19T03:59:25;13.50;99.90
19220;DHT22;9744;49.364;7.484;2023-09-19T04:01:54;13.50;99.90
19220;DHT22;9744;49.364;7.484;2023-09-19T04:04:23;13.50;99.90
19220;DHT22;9744;49.364;7.484;2023-09-19T04:06:50;13.50;99.90
19220;DHT22;9744;49.364;7.484;2023-09-19T04:09:18;13.40;99.90
19220;DHT22;9744;49.364;7.484;2023-09-19T04:11:45;13.40;99.90
19220;DHT22;9744;49.364;7.484;2023-09-19T04:14:13;13.40;99.90
19220;DHT22;9744;49.364;7.484;2023-09-19T04:16:40;13.40;99.90
19220;DHT22;9744;49.364;7.484;2023-09-19T04:19:08;13.40;99.90
19220;DHT22;9744;49.364;7.484;2023-09-19T04:21:36;13.40;99.90
19220;DHT22;9744;49.364;7.484;2023-09-19T04:24:03;13.30;99.90
19220;DHT22;9744;49.364;7.484;2023-09-19T04:26:31;13.30;99.90
19220;DHT22;9744;49.364;7.484;2023-09-19T04:28:58;13.30;99.90
19220;DHT22;9744;49.364;7.484;2023-09-19T04:31:26;13.30;99.90
19220;DHT22;9744;49.364;7.484;2023-09-19T04:33:54;13.40;99.90
19220;DHT22;9744;49.364;7.484;2023-09-19T04:36:24;13.30;99.90
19220;DHT22;9744;49.364;7.484;2023-09-19T04:39:04;13.30;99.90
19220;DHT22;9744;49.364;7.484;2023-09-19T04:41:33;13.20;99.90
19220;DHT22;9744;49.364;7.484;2023-09-19T04:44:04;13.20;99.90
19220;DHT22;9744;49.364;7.484;2023-09-19T04:46:31;13.20;99.90
19220;DHT22;9744;49.364;7.484;2023-09-19T04:48:59;13.30;99.90
19220;DHT22;9744;49.364;7.484;2023-09-19T04:51:28;13.20;99.90
19220;DHT22;9744;49.364;7.484;2023-09-19T04:54:00;13.10;99.90
19220;DHT22;9744;49.364;7.484;2023-09-19T04:56:27;13.20;99.90
19220;DHT22;9744;49.364;7.484;2023-09-19T04:58:55;13.10;99.90
19220;DHT22;9744;49.364;7.484;2023-09-19T05:01:24;13.20;99.90
19220;DHT22;9744;49.364;7.484;2023-09-19T05:03:51;13.20;99.90
19220;DHT22;9744;49.364;7.484;2023-09-19T05:06:19;13.20;99.90
19220;DHT22;9744;49.364;7.484;2023-09-19T05:08:49;13.10;99.90
19220;DHT22;9744;49.364;7.484;2023-09-19T05:11:17;13.10;99.90
19220;DHT22;9744;49.364;7.484;2023-09-19T05:13:44;13.20;99.90
19220;DHT22;9744;49.364;7.484;2023-09-19T05:16:12;13.20;99.90
19220;DHT22;9744;49.364;7.484;2023-09-19T05:18:39;13.20;99.90
19220;DHT22;9744;49.364;7.484;2023-09-19T05:21:07;13.20;99.90
19220;DHT22;9744;49.364;7.484;2023-09-19T05:23:34;13.10;99.90
19220;DHT22;9744;49.364;7.484;2023-09-19T05:26:04;13.20;99.90
19220;DHT22;9744;49.364;7.484;2023-09-19T05:28:31;13.20;99.90
19220;DHT22;9744;49.364;7.484;2023-09-19T05:31:00;13.10;99.90
19220;DHT22;9744;49.364;7.484;2023-09-19T05:33:28;13.10;99.90
19220;DHT22;9744;49.364;7.484;2023-09-19T05:35:56;13.10;99.90
19220;DHT22;9744;49.364;7.484;2023-09-19T05:38:24;13.20;99.90
19220;DHT22;9744;49.364;7.484;2023-09-19T05:40:52;13.20;99.90
19220;DHT22;9744;49.364;7.484;2023-09-19T05:43:21;13.20;99.90
19220;DHT22;9744;49.364;7.484;2023-09-19T05:45:48;13.20;99.90
19220;DHT22;9744;49.364;7.484;2023-09-19T05:48:18;13.20;99.90
19220;DHT22;9744;49.364;7.484;2023-09-19T05:50:47;13.20;99.90
19220;DHT22;9744;49.364;7.484;2023-09-19T05:53:14;13.20;99.90
19220;DHT22;9744;49.364;7.484;2023-09-19T05:55:44;13.20;99.90
19220;DHT22;9744;49.364;7.484;2023-09-19T05:58:12;13.20;99.90
19220;DHT22;9744;49.364;7.484;2023-09-19T06:00:44;13.20;99.90
19220;DHT22;9744;49.364;7.484;2023-09-19T06:03:13;13.20;99.90
19220;DHT22;9744;49.364;7.484;2023-09-19T06:05:40;13.20;99.90
19220;DHT22;9744;49.364;7.484;2023-09-19T06:08:08;13.20;99.90
19220;DHT22;9744;49.364;7.484;2023-09-19T06:10:35;13.20;99.90
19220;DHT22;9744;49.364;7.484;2023-09-19T06:13:06;13.20;99.90
19220;DHT22;9744;49.364;7.484;2023-09-19T06:15:35;13.20;99.90
19220;DHT22;9744;49.364;7.484;2023-09-19T06:18:04;13.20;99.90
19220;DHT22;9744;49.364;7.484;2023-09-19T06:20:32;13.20;99.90
19220;DHT22;9744;49.364;7.484;2023-09-19T06:23:00;13.20;99.90
19220;DHT22;9744;49.364;7.484;2023-09-19T06:25:28;13.20;99.90
19220;DHT22;9744;49.364;7.484;2023-09-19T06:27:55;13.30;99.90
19220;DHT22;9744;49.364;7.484;2023-09-19T06:30:23;13.20;99.90
19220;DHT22;9744;49.364;7.484;2023-09-19T06:32:56;13.20;99.90
19220;DHT22;9744;49.364;7.484;2023-09-19T06:35:25;13.20;99.90
19220;DHT22;9744;49.364;7.484;2023-09-19T06:37:53;13.20;99.90
19220;DHT22;9744;49.364;7.484;2023-09-19T06:40:23;13.20;99.90
19220;DHT22;9744;49.364;7.484;2023-09-19T06:42:51;13.20;99.90
19220;DHT22;9744;49.364;7.484;2023-09-19T06:45:20;13.20;99.90
19220;DHT22;9744;49.364;7.484;2023-09-19T06:47:49;13.10;99.90
19220;DHT22;9744;49.364;7.484;2023-09-19T06:50:17;13.10;99.90
19220;DHT22;9744;49.364;7.484;2023-09-19T06:52:47;13.20;99.90
19220;DHT22;9744;49.364;7.484;2023-09-19T06:55:16;13.10;99.90
19220;DHT22;9744;49.364;7.484;2023-09-19T06:57:43;13.20;99.90
19220;DHT22;9744;49.364;7.484;2023-09-19T07:00:12;13.20;99.90
19220;DHT22;9744;49.364;7.484;2023-09-19T07:02:44;13.20;99.90
19220;DHT22;9744;49.364;7.484;2023-09-19T07:05:12;13.20;99.90
19220;DHT22;9744;49.364;7.484;2023-09-19T07:07:39;13.30;99.90
19220;DHT22;9744;49.364;7.484;2023-09-19T07:10:09;13.30;99.90
19220;DHT22;9744;49.364;7.484;2023-09-19T07:12:39;13.30;99.90
19220;DHT22;9744;49.364;7.484;2023-09-19T07:15:07;13.30;99.90
19220;DHT22;9744;49.364;7.484;2023-09-19T07:17:35;13.30;99.90
19220;DHT22;9744;49.364;7.484;2023-09-19T07:20:02;13.20;99.90
19220;DHT22;9744;49.364;7.484;2023-09-19T07:22:33;13.30;99.90
19220;DHT22;9744;49.364;7.484;2023-09-19T07:25:02;13.30;99.90
19220;DHT22;9744;49.364;7.484;2023-09-19T07:27:31;13.30;99.90
19220;DHT22;9744;49.364;7.484;2023-09-19T07:29:59;13.30;99.90
19220;DHT22;9744;49.364;7.484;2023-09-19T07:32:26;13.30;99.90
19220;DHT22;9744;49.364;7.484;2023-09-19T07:34:54;13.20;99.90
19220;DHT22;9744;49.364;7.484;2023-09-19T07:37:21;13.20;99.90
19220;DHT22;9744;49.364;7.484;2023-09-19T07:39:53;13.20;99.90
19220;DHT22;9744;49.364;7.484;2023-09-19T07:42:20;13.30;99.90
19220;DHT22;9744;49.364;7.484;2023-09-19T07:44:49;13.30;99.90
19220;DHT22;9744;49.364;7.484;2023-09-19T07:47:17;13.30;99.90
19220;DHT22;9744;49.364;7.484;2023-09-19T07:49:46;13.40;99.90
19220;DHT22;9744;49.364;7.484;2023-09-19T07:52:14;13.50;99.90
19220;DHT22;9744;49.364;7.484;2023-09-19T07:54:41;13.60;99.90
19220;DHT22;9744;49.364;7.484;2023-09-19T07:57:10;13.60;99.90
19220;DHT22;9744;49.364;7.484;2023-09-19T07:59:42;13.70;99.90
19220;DHT22;9744;49.364;7.484;2023-09-19T08:02:12;13.70;99.90
19220;DHT22;9744;49.364;7.484;2023-09-19T08:04:42;13.80;99.90
19220;DHT22;9744;49.364;7.484;2023-09-19T08:07:17;13.90;99.90
19220;DHT22;9744;49.364;7.484;2023-09-19T08:09:45;14.00;99.90
19220;DHT22;9744;49.364;7.484;2023-09-19T08:12:12;14.00;99.90
19220;DHT22;9744;49.364;7.484;2023-09-19T08:14:40;14.20;99.90
19220;DHT22;9744;49.364;7.484;2023-09-19T08:17:08;14.30;99.90
19220;DHT22;9744;49.364;7.484;2023-09-19T08:19:36;14.30;99.90
19220;DHT22;9744;49.364;7.484;2023-09-19T08:22:07;14.30;99.90
19220;DHT22;9744;49.364;7.484;2023-09-19T08:24:36;14.20;99.90
19220;DHT22;9744;49.364;7.484;2023-09-19T08:27:04;14.10;99.90
19220;DHT22;9744;49.364;7.484;2023-09-19T08:29:37;14.10;99.90
19220;DHT22;9744;49.364;7.484;2023-09-19T08:32:05;14.00;99.90
19220;DHT22;9744;49.364;7.484;2023-09-19T08:34:32;13.90;99.90
19220;DHT22;9744;49.364;7.484;2023-09-19T08:37:01;13.90;99.90
19220;DHT22;9744;49.364;7.484;2023-09-19T08:39:30;14.00;99.90
19220;DHT22;9744;49.364;7.484;2023-09-19T08:42:00;14.10;99.90
19220;DHT22;9744;49.364;7.484;2023-09-19T08:44:28;14.30;99.90
19220;DHT22;9744;49.364;7.484;2023-09-19T08:47:04;14.40;99.90
19220;DHT22;9744;49.364;7.484;2023-09-19T08:49:41;14.40;99.90
19220;DHT22;9744;49.364;7.484;2023-09-19T08:52:19;14.50;99.90
19220;DHT22;9744;49.364;7.484;2023-09-19T08:54:51;14.50;99.90
19220;DHT22;9744;49.364;7.484;2023-09-19T08:57:46;14.50;99.90
19220;DHT22;9744;49.364;7.484;2023-09-19T09:00:16;14.50;99.90
19220;DHT22;9744;49.364;7.484;2023-09-19T09:02:47;14.50;99.90
19220;DHT22;9744;49.364;7.484;2023-09-19T09:05:16;14.70;99.90
19220;DHT22;9744;49.364;7.484;2023-09-19T09:07:50;15.00;99.90
19220;DHT22;9744;49.364;7.484;2023-09-19T09:10:18;15.30;99.90
19220;DHT22;9744;49.364;7.484;2023-09-19T09:12:48;15.60;99.90
19220;DHT22;9744;49.364;7.484;2023-09-19T09:15:19;15.70;99.90
19220;DHT22;9744;49.364;7.484;2023-09-19T09:17:49;15.80;99.90
19220;DHT22;9744;49.364;7.484;2023-09-19T09:20:20;15.80;99.90
19220;DHT22;9744;49.364;7.484;2023-09-19T09:22:53;16.00;99.90
19220;DHT22;9744;49.364;7.484;2023-09-19T09:25:21;16.00;99.90
19220;DHT22;9744;49.364;7.484;2023-09-19T09:28:00;16.20;99.90
19220;DHT22;9744;49.364;7.484;2023-09-19T09:30:33;16.50;99.90
19220;DHT22;9744;49.364;7.484;2023-09-19T09:33:11;16.70;99.90
19220;DHT22;9744;49.364;7.484;2023-09-19T09:35:47;16.80;99.90
19220;DHT22;9744;49.364;7.484;2023-09-19T09:38:20;17.10;99.90
19220;DHT22;9744;49.364;7.484;2023-09-19T09:40:48;17.30;99.90
19220;DHT22;9744;49.364;7.484;2023-09-19T09:43:27;17.40;99.90
19220;DHT22;9744;49.364;7.484;2023-09-19T09:46:14;17.10;99.90
19220;DHT22;9744;49.364;7.484;2023-09-19T09:49:01;17.20;99.90
19220;DHT22;9744;49.364;7.484;2023-09-19T09:52:01;17.50;99.90
19220;DHT22;9744;49.364;7.484;2023-09-19T09:54:34;17.30;99.90
19220;DHT22;9744;49.364;7.484;2023-09-19T09:57:03;17.30;99.90
19220;DHT22;9744;49.364;7.484;2023-09-19T09:59:52;17.40;99.90
19220;DHT22;9744;49.364;7.484;2023-09-19T10:02:25;17.50;99.90
19220;DHT22;9744;49.364;7.484;2023-09-19T10:04:55;17.50;99.90
19220;DHT22;9744;49.364;7.484;2023-09-19T10:07:35;17.50;99.90
19220;DHT22;9744;49.364;7.484;2023-09-19T10:10:08;17.20;99.90
19220;DHT22;9744;49.364;7.484;2023-09-19T10:12:44;16.80;99.90
19220;DHT22;9744;49.364;7.484;2023-09-19T10:15:47;16.70;99.90
19220;DHT22;9744;49.364;7.484;2023-09-19T10:18:20;16.90;99.90
19220;DHT22;9744;49.364;7.484;2023-09-19T10:20:48;16.80;99.90
19220;DHT22;9744;49.364;7.484;2023-09-19T10:23:17;16.60;99.90
19220;DHT22;9744;49.364;7.484;2023-09-19T10:25:50;16.60;99.90
19220;DHT22;9744;49.364;7.484;2023-09-19T10:28:19;16.50;99.90
19220;DHT22;9744;49.364;7.484;2023-09-19T10:30:49;16.40;99.90
19220;DHT22;9744;49.364;7.484;2023-09-19T10:33:18;16.30;99.90
19220;DHT22;9744;49.364;7.484;2023-09-19T10:35:48;16.20;99.90
19220;DHT22;9744;49.364;7.484;2023-09-19T10:38:18;16.30;99.90
19220;DHT22;9744;49.364;7.484;2023-09-19T10:40:53;16.20;99.90
19220;DHT22;9744;49.364;7.484;2023-09-19T10:43:21;16.20;99.90
19220;DHT22;9744;49.364;7.484;2023-09-19T10:45:51;16.60;99.90
19220;DHT22;9744;49.364;7.484;2023-09-19T10:48:20;16.90;99.90
19220;DHT22;9744;49.364;7.484;2023-09-19T10:50:58;17.30;99.90
19220;DHT22;9744;49.364;7.484;2023-09-19T10:53:41;17.50;99.90
19220;DHT22;9744;49.364;7.484;2023-09-19T10:56:17;17.50;99.90
19220;DHT22;9744;49.364;7.484;2023-09-19T10:58:45;17.30;99.90
19220;DHT22;9744;49.364;7.484;2023-09-19T11:01:13;17.00;99.90
19220;DHT22;9744;49.364;7.484;2023-09-19T11:03:41;17.00;99.90
19220;DHT22;9744;49.364;7.484;2023-09-19T11:06:12;17.00;99.90
19220;DHT22;9744;49.364;7.484;2023-09-19T11:11:51;17.00;99.90
19220;DHT22;9744;49.364;7.484;2023-09-19T11:14:41;17.20;99.90
19220;DHT22;9744;49.364;7.484;2023-09-19T11:17:41;17.20;99.90
19220;DHT22;9744;49.364;7.484;2023-09-19T11:20:25;17.40;99.90
19220;DHT22;9744;49.364;7.484;2023-09-19T11:23:20;17.60;99.90
19220;DHT22;9744;49.364;7.484;2023-09-19T11:25:53;17.70;99.90
19220;DHT22;9744;49.364;7.484;2023-09-19T11:28:35;18.10;99.90
19220;DHT22;9744;49.364;7.484;2023-09-19T11:34:40;18.80;99.90
19220;DHT22;9744;49.364;7.484;2023-09-19T11:40:28;19.70;99.90
19220;DHT22;9744;49.364;7.484;2023-09-19T11:42:56;19.80;99.90
19220;DHT22;9744;49.364;7.484;2023-09-19T11:48:32;19.50;99.90
19220;DHT22;9744;49.364;7.484;2023-09-19T11:51:11;19.40;99.90
19220;DHT22;9744;49.364;7.484;2023-09-19T11:53:45;19.50;99.90
19220;DHT22;9744;49.364;7.484;2023-09-19T11:56:16;19.60;99.90
19220;DHT22;9744;49.364;7.484;2023-09-19T11:58:44;19.70;99.90
19220;DHT22;9744;49.364;7.484;2023-09-19T12:01:13;19.80;99.90
19220;DHT22;9744;49.364;7.484;2023-09-19T12:03:53;19.90;99.90
19220;DHT22;9744;49.364;7.484;2023-09-19T12:06:23;19.90;99.90
19220;DHT22;9744;49.364;7.484;2023-09-19T12:08:51;19.90;99.90
19220;DHT22;9744;49.364;7.484;2023-09-19T12:11:21;19.90;99.90
19220;DHT22;9744;49.364;7.484;2023-09-19T12:13:50;20.20;99.90
19220;DHT22;9744;49.364;7.484;2023-09-19T12:16:20;20.30;99.90
19220;DHT22;9744;49.364;7.484;2023-09-19T12:18:50;20.20;99.90
19220;DHT22;9744;49.364;7.484;2023-09-19T12:21:24;19.90;99.90
19220;DHT22;9744;49.364;7.484;2023-09-19T12:24:13;20.00;99.90
19220;DHT22;9744;49.364;7.484;2023-09-19T12:26:43;20.20;99.90
19220;DHT22;9744;49.364;7.484;2023-09-19T12:29:13;20.40;99.90
19220;DHT22;9744;49.364;7.484;2023-09-19T12:31:54;20.20;99.90
19220;DHT22;9744;49.364;7.484;2023-09-19T12:34:26;20.50;99.90
19220;DHT22;9744;49.364;7.484;2023-09-19T12:37:10;20.40;99.90
19220;DHT22;9744;49.364;7.484;2023-09-19T12:39:42;20.50;99.90
19220;DHT22;9744;49.364;7.484;2023-09-19T12:42:15;20.50;99.90
19220;DHT22;9744;49.364;7.484;2023-09-19T12:44:44;20.80;99.90
19220;DHT22;9744;49.364;7.484;2023-09-19T12:47:14;20.90;99.90
19220;DHT22;9744;49.364;7.484;2023-09-19T12:50:11;20.80;99.90
19220;DHT22;9744;49.364;7.484;2023-09-19T12:52:44;20.60;99.90
19220;DHT22;9744;49.364;7.484;2023-09-19T12:55:24;20.60;99.90
19220;DHT22;9744;49.364;7.484;2023-09-19T12:57:57;20.60;99.90
19220;DHT22;9744;49.364;7.484;2023-09-19T13:00:35;20.40;99.90
19220;DHT22;9744;49.364;7.484;2023-09-19T13:03:16;20.30;99.90
19220;DHT22;9744;49.364;7.484;2023-09-19T13:06:02;20.40;99.90
19220;DHT22;9744;49.364;7.484;2023-09-19T13:08:31;20.40;99.90
19220;DHT22;9744;49.364;7.484;2023-09-19T13:11:01;20.40;99.90
19220;DHT22;9744;49.364;7.484;2023-09-19T13:13:27;20.30;99.90
19220;DHT22;9744;49.364;7.484;2023-09-19T13:15:58;20.40;99.90
19220;DHT22;9744;49.364;7.484;2023-09-19T13:18:27;20.20;99.90
19220;DHT22;9744;49.364;7.484;2023-09-19T13:21:09;19.80;99.90
19220;DHT22;9744;49.364;7.484;2023-09-19T13:23:38;19.70;99.90
19220;DHT22;9744;49.364;7.484;2023-09-19T13:26:05;19.80;99.90
19220;DHT22;9744;49.364;7.484;2023-09-19T13:28:33;19.90;99.90
19220;DHT22;9744;49.364;7.484;2023-09-19T13:31:01;19.70;99.90
19220;DHT22;9744;49.364;7.484;2023-09-19T13:33:28;19.90;99.90
19220;DHT22;9744;49.364;7.484;2023-09-19T13:35:56;20.10;99.90
19220;DHT22;9744;49.364;7.484;2023-09-19T13:38:25;20.00;99.90
19220;DHT22;9744;49.364;7.484;2023-09-19T13:40:52;19.90;99.90
19220;DHT22;9744;49.364;7.484;2023-09-19T13:43:19;19.90;99.90
19220;DHT22;9744;49.364;7.484;2023-09-19T13:45:48;19.90;99.90
19220;DHT22;9744;49.364;7.484;2023-09-19T13:48:16;19.80;99.90
19220;DHT22;9744;49.364;7.484;2023-09-19T13:50:48;19.70;99.90
19220;DHT22;9744;49.364;7.484;2023-09-19T13:53:15;19.50;99.90
19220;DHT22;9744;49.364;7.484;2023-09-19T13:55:45;19.50;99.90
19220;DHT22;9744;49.364;7.484;2023-09-19T13:58:13;19.50;99.90
19220;DHT22;9744;49.364;7.484;2023-09-19T14:00:41;19.50;99.90
19220;DHT22;9744;49.364;7.484;2023-09-19T14:03:08;19.60;99.90
19220;DHT22;9744;49.364;7.484;2023-09-19T14:05:36;19.70;99.90
19220;DHT22;9744;49.364;7.484;2023-09-19T14:08:04;19.80;99.90
19220;DHT22;9744;49.364;7.484;2023-09-19T14:10:32;19.70;99.90
19220;DHT22;9744;49.364;7.484;2023-09-19T14:13:00;19.70;99.90
19220;DHT22;9744;49.364;7.484;2023-09-19T14:15:28;19.60;99.90
19220;DHT22;9744;49.364;7.484;2023-09-19T14:17:58;19.60;99.90
19220;DHT22;9744;49.364;7.484;2023-09-19T14:20:30;19.60;99.90
19220;DHT22;9744;49.364;7.484;2023-09-19T14:22:58;19.50;99.90
19220;DHT22;9744;49.364;7.484;2023-09-19T14:25:26;19.50;99.90
19220;DHT22;9744;49.364;7.484;2023-09-19T14:27:54;19.50;99.90
19220;DHT22;9744;49.364;7.484;2023-09-19T14:30:23;19.40;99.90
19220;DHT22;9744;49.364;7.484;2023-09-19T14:32:50;19.40;99.90
19220;DHT22;9744;49.364;7.484;2023-09-19T14:35:18;19.50;99.90
19220;DHT22;9744;49.364;7.484;2023-09-19T14:37:45;19.70;99.90
19220;DHT22;9744;49.364;7.484;2023-09-19T14:40:12;19.80;99.90
19220;DHT22;9744;49.364;7.484;2023-09-19T14:42:43;20.00;99.90
19220;DHT22;9744;49.364;7.484;2023-09-19T14:45:13;19.90;99.90
19220;DHT22;9744;49.364;7.484;2023-09-19T14:47:46;19.70;99.90
19220;DHT22;9744;49.364;7.484;2023-09-19T14:50:14;19.70;99.90
19220;DHT22;9744;49.364;7.484;2023-09-19T14:52:41;19.60;99.90
19220;DHT22;9744;49.364;7.484;2023-09-19T14:55:08;19.50;99.90
19220;DHT22;9744;49.364;7.484;2023-09-19T14:57:40;19.70;99.90
19220;DHT22;9744;49.364;7.484;2023-09-19T15:00:11;19.80;99.90
19220;DHT22;9744;49.364;7.484;2023-09-19T15:02:40;20.10;99.90
19220;DHT22;9744;49.364;7.484;2023-09-19T15:05:09;20.40;99.90
19220;DHT22;9744;49.364;7.484;2023-09-19T15:07:37;20.40;99.90
19220;DHT22;9744;49.364;7.484;2023-09-19T15:10:06;20.50;99.90
19220;DHT22;9744;49.364;7.484;2023-09-19T15:12:35;20.50;99.90
19220;DHT22;9744;49.364;7.484;2023-09-19T15:15:04;20.40;99.90
19220;DHT22;9744;49.364;7.484;2023-09-19T15:17:32;20.20;99.90
19220;DHT22;9744;49.364;7.484;2023-09-19T15:20:00;20.40;99.90
19220;DHT22;9744;49.364;7.484;2023-09-19T15:22:29;20.60;99.90
19220;DHT22;9744;49.364;7.484;2023-09-19T15:24:56;20.80;99.90
19220;DHT22;9744;49.364;7.484;2023-09-19T15:27:23;20.90;99.90
19220;DHT22;9744;49.364;7.484;2023-09-19T15:29:51;20.90;99.90
19220;DHT22;9744;49.364;7.484;2023-09-19T15:32:18;20.90;99.90
19220;DHT22;9744;49.364;7.484;2023-09-19T15:34:47;20.80;99.90
19220;DHT22;9744;49.364;7.484;2023-09-19T15:37:14;20.60;99.90
19220;DHT22;9744;49.364;7.484;2023-09-19T15:39:43;20.70;99.90
19220;DHT22;9744;49.364;7.484;2023-09-19T15:42:11;20.50;99.90
19220;DHT22;9744;49.364;7.484;2023-09-19T15:44:38;20.60;99.90
19220;DHT22;9744;49.364;7.484;2023-09-19T15:47:07;20.60;99.90
19220;DHT22;9744;49.364;7.484;2023-09-19T15:49:34;20.60;99.90
19220;DHT22;9744;49.364;7.484;2023-09-19T15:52:02;20.30;99.90
19220;DHT22;9744;49.364;7.484;2023-09-19T15:54:30;20.30;99.90
19220;DHT22;9744;49.364;7.484;2023-09-19T15:57:00;20.40;99.90
19220;DHT22;9744;49.364;7.484;2023-09-19T15:59:28;20.40;99.90
19220;DHT22;9744;49.364;7.484;2023-09-19T16:01:56;20.30;99.90
19220;DHT22;9744;49.364;7.484;2023-09-19T16:04:23;20.30;99.90
19220;DHT22;9744;49.364;7.484;2023-09-19T16:06:54;20.40;99.90
19220;DHT22;9744;49.364;7.484;2023-09-19T16:09:22;20.40;99.90
19220;DHT22;9744;49.364;7.484;2023-09-19T16:11:49;20.30;99.90
19220;DHT22;9744;49.364;7.484;2023-09-19T16:14:18;20.20;99.90
19220;DHT22;9744;49.364;7.484;2023-09-19T16:16:46;20.10;99.90
19220;DHT22;9744;49.364;7.484;2023-09-19T16:19:13;20.00;99.90